Time;durP1;ratioP1;P1;durP2;ratioP2;P2;SDS_P1;SDS_P2;PMS_P1;PMS_P2;Temp;Humidity;BMP_temperature;BMP_pressure;BME280_temperature;BME280_humidity;BME280_pressure;Samples;Min_cycle;Max_cycle;Signal;HPM_P1;HPM_P2
2022/01/13 00:00:18;;;;;;;45.97;17.62;;;;;;;;;;2295080;58;21072;-74
2022/01/13 00:02:46;;;;;;;57.40;19.17;;;;;;;;;;2294640;58;21072;-74
2022/01/13 00:05:13;;;;;;;38.58;13.98;;;;;;;;;;2294391;58;21172;-74
2022/01/13 00:07:40;;;;;;;67.93;17.95;;;;;;;;;;2294825;58;21123;-74
2022/01/13 00:10:09;;;;;;;64.22;19.90;;;;;;;;;;2294656;58;21064;-74
2022/01/13 00:12:41;;;;;;;59.67;19.12;;;;;;;;;;2294957;58;21072;-74
2022/01/13 00:15:21;;;;;;;66.10;19.25;;;;;;;;;;2294742;58;21123;-74
2022/01/13 00:18:02;;;;;;;62.05;17.40;;;;;;;;;;2295259;58;21127;-74
2022/01/13 00:20:38;;;;;;;44.10;15.88;;;;;;;;;;2294846;58;21064;-74
2022/01/13 00:25:54;;;;;;;53.13;18.85;;;;;;;;;;2295051;58;21008;-73
2022/01/13 00:28:22;;;;;;;52.42;18.02;;;;;;;;;;2294967;58;21466;-74
2022/01/13 00:30:53;;;;;;;69.93;18.25;;;;;;;;;;2294698;58;21558;-74
2022/01/13 00:33:24;;;;;;;62.42;18.60;;;;;;;;;;2294818;58;21059;-74
2022/01/13 00:35:52;;;;;;;49.03;15.48;;;;;;;;;;2294845;58;21137;-74
2022/01/13 00:38:20;;;;;;;60.78;17.60;;;;;;;;;;2295231;58;21072;-74
2022/01/13 00:40:47;;;;;;;60.67;18.35;;;;;;;;;;2295148;58;21064;-74
2022/01/13 00:43:14;;;;;;;53.63;16.05;;;;;;;;;;2295533;58;21582;-74
2022/01/13 00:45:41;;;;;;;52.55;16.12;;;;;;;;;;2294907;58;21072;-74
2022/01/13 00:48:09;;;;;;;66.25;18.23;;;;;;;;;;2295089;58;21108;-74
2022/01/13 00:50:36;;;;;;;55.33;17.73;;;;;;;;;;2530463;54;21542;-74
2022/01/13 00:53:03;;;;;;;58.10;17.70;;;;;;;;;;2295148;58;21064;-74
2022/01/13 00:55:44;;;;;;;52.50;15.75;;;;;;;;;;2294907;58;21064;-74
2022/01/13 00:58:12;;;;;;;39.65;13.50;;;;;;;;;;2294593;58;21598;-74
2022/01/13 01:00:39;;;;;;;62.17;16.55;;;;;;;;;;2294673;58;21048;-74
2022/01/13 01:03:07;;;;;;;49.78;15.27;;;;;;;;;;2284087;58;21550;-74
2022/01/13 01:05:34;;;;;;;65.22;18.27;;;;;;;;;;2294739;58;21060;-74
2022/01/13 01:08:02;;;;;;;65.00;17.37;;;;;;;;;;2294948;58;21052;-74
2022/01/13 01:10:29;;;;;;;64.87;17.70;;;;;;;;;;2294780;58;21135;-74
2022/01/13 01:12:56;;;;;;;56.47;16.98;;;;;;;;;;2295216;58;21056;-74
2022/01/13 01:15:24;;;;;;;50.92;16.90;;;;;;;;;;2294664;58;21048;-74
2022/01/13 01:18:00;;;;;;;53.47;18.02;;;;;;;;;;2295687;58;21059;-74
2022/01/13 01:20:30;;;;;;;61.40;18.33;;;;;;;;;;2294683;58;21045;-74
2022/01/13 01:23:05;;;;;;;53.87;17.87;;;;;;;;;;2294638;58;21064;-74
2022/01/13 01:25:42;;;;;;;47.03;16.23;;;;;;;;;;2294705;58;21155;-74
2022/01/13 01:28:15;;;;;;;61.25;15.98;;;;;;;;;;2294410;58;21132;-74
2022/01/13 01:30:45;;;;;;;41.28;13.57;;;;;;;;;;2294127;58;21076;-74
2022/01/13 01:33:16;;;;;;;51.20;16.92;;;;;;;;;;2294805;58;21092;-74
2022/01/13 01:35:43;;;;;;;48.95;16.37;;;;;;;;;;2294570;58;21060;-74
2022/01/13 01:38:10;;;;;;;44.67;16.37;;;;;;;;;;2294768;58;21135;-74
2022/01/13 01:40:37;;;;;;;42.50;14.90;;;;;;;;;;2294827;58;21155;-74
2022/01/13 01:43:05;;;;;;;57.70;16.15;;;;;;;;;;2295165;58;21056;-74
2022/01/13 01:45:40;;;;;;;52.92;16.62;;;;;;;;;;2294833;58;21610;-74
2022/01/13 01:48:09;;;;;;;62.97;19.45;;;;;;;;;;2295015;58;21119;-74
2022/01/13 01:50:38;;;;;;;94.95;21.20;;;;;;;;;;2294852;58;21044;-74
2022/01/13 01:53:06;;;;;;;56.58;18.87;;;;;;;;;;2295111;58;21111;-74
2022/01/13 01:55:34;;;;;;;48.72;17.17;;;;;;;;;;2294714;58;21590;-74
2022/01/13 01:58:01;;;;;;;67.55;18.00;;;;;;;;;;2294399;58;22183;-74
2022/01/13 02:00:28;;;;;;;60.90;19.40;;;;;;;;;;2294685;58;21542;-74
2022/01/13 02:02:56;;;;;;;58.08;17.42;;;;;;;;;;2295180;58;21318;-74
2022/01/13 02:05:23;;;;;;;72.82;19.42;;;;;;;;;;2295098;58;21446;-74
2022/01/13 02:07:50;;;;;;;60.30;18.30;;;;;;;;;;2295194;58;21072;-74
2022/01/13 02:10:18;;;;;;;97.00;20.35;;;;;;;;;;2294751;58;21389;-74
2022/01/13 02:12:49;;;;;;;62.60;18.12;;;;;;;;;;2294947;58;21112;-74
2022/01/13 02:15:29;;;;;;;70.35;19.67;;;;;;;;;;2295289;58;21366;-74
2022/01/13 02:18:14;;;;;;;95.65;21.20;;;;;;;;;;2278751;58;21083;-74
2022/01/13 02:20:43;;;;;;;48.92;15.18;;;;;;;;;;2294820;58;21060;-74
2022/01/13 02:23:10;;;;;;;65.50;18.58;;;;;;;;;;2295279;58;21143;-74
2022/01/13 02:25:37;;;;;;;52.85;16.52;;;;;;;;;;2294957;58;21136;-74
2022/01/13 02:28:05;;;;;;;97.50;21.92;;;;;;;;;;2294722;58;21132;-74
2022/01/13 02:30:32;;;;;;;72.47;19.27;;;;;;;;;;2530306;54;21048;-74
2022/01/13 02:32:59;;;;;;;75.37;18.83;;;;;;;;;;2295335;58;21135;-74
2022/01/13 02:35:34;;;;;;;56.60;19.17;;;;;;;;;;2295315;58;21061;-74
2022/01/13 02:38:01;;;;;;;59.08;16.60;;;;;;;;;;2294643;58;21327;-74
2022/01/13 02:40:29;;;;;;;56.08;18.62;;;;;;;;;;2294874;58;21716;-74
2022/01/13 02:42:56;;;;;;;59.15;17.48;;;;;;;;;;2295161;58;21653;-74
2022/01/13 02:45:31;;;;;;;54.53;18.50;;;;;;;;;;2294990;58;21059;-74
2022/01/13 02:48:13;;;;;;;54.78;16.92;;;;;;;;;;2295052;58;21123;-74
2022/01/13 02:50:40;;;;;;;72.62;19.87;;;;;;;;;;2294634;58;21139;-74
2022/01/13 02:53:08;;;;;;;60.35;18.73;;;;;;;;;;2295315;58;21064;-74
2022/01/13 02:55:35;;;;;;;65.20;18.90;;;;;;;;;;2294821;58;21614;-74
2022/01/13 02:58:03;;;;;;;63.55;16.65;;;;;;;;;;2294898;58;21595;-74
2022/01/13 03:00:31;;;;;;;63.75;18.62;;;;;;;;;;2294363;58;21127;-74
2022/01/13 03:02:58;;;;;;;63.45;19.55;;;;;;;;;;2295185;58;21052;-74
2022/01/13 03:05:25;;;;;;;97.95;21.05;;;;;;;;;;2295626;58;21642;-74
2022/01/13 03:07:53;;;;;;;52.80;17.75;;;;;;;;;;2295816;58;21056;-74
2022/01/13 03:10:20;;;;;;;81.25;20.05;;;;;;;;;;2294616;58;21052;-74
2022/01/13 03:12:47;;;;;;;56.28;17.08;;;;;;;;;;2295520;58;21055;-74
2022/01/13 03:15:15;;;;;;;64.18;18.45;;;;;;;;;;2294550;58;21136;-74
2022/01/13 03:17:42;;;;;;;70.05;19.12;;;;;;;;;;2295271;58;21143;-74
2022/01/13 03:20:11;;;;;;;81.28;20.77;;;;;;;;;;2294647;58;21072;-74
2022/01/13 03:22:38;;;;;;;68.60;18.30;;;;;;;;;;2295135;58;21584;-74
2022/01/13 03:25:06;;;;;;;60.35;18.23;;;;;;;;;;2294826;58;21136;-74
2022/01/13 03:27:35;;;;;;;64.47;20.33;;;;;;;;;;2530840;54;21061;-74
2022/01/13 03:30:05;;;;;;;65.97;18.37;;;;;;;;;;2294414;58;21044;-74
2022/01/13 03:32:32;;;;;;;73.97;20.12;;;;;;;;;;2295653;58;21056;-74
2022/01/13 03:35:00;;;;;;;59.60;19.00;;;;;;;;;;2295041;58;21130;-74
2022/01/13 03:37:27;;;;;;;63.70;18.85;;;;;;;;;;2295467;58;21052;-74
2022/01/13 03:39:54;;;;;;;66.22;19.23;;;;;;;;;;2294860;58;21064;-74
2022/01/13 03:42:21;;;;;;;64.37;18.80;;;;;;;;;;2531266;54;21128;-74
2022/01/13 03:44:48;;;;;;;62.05;18.80;;;;;;;;;;2295393;58;21115;-74
2022/01/13 03:47:16;;;;;;;60.30;18.52;;;;;;;;;;2294825;58;21060;-74
2022/01/13 03:49:43;;;;;;;58.58;16.65;;;;;;;;;;2294511;58;21071;-74
2022/01/13 03:52:33;;;;;;;57.25;16.73;;;;;;;;;;2294806;58;21151;-74
2022/01/13 03:55:22;;;;;;;64.18;17.65;;;;;;;;;;2294751;58;21084;-74
2022/01/13 03:58:17;;;;;;;56.47;16.17;;;;;;;;;;2294604;58;21693;-74
2022/01/13 04:01:13;;;;;;;85.97;23.87;;;;;;;;;;2294466;58;21048;-74
2022/01/13 04:03:40;;;;;;;53.33;18.02;;;;;;;;;;2275842;58;21056;-74
2022/01/13 04:06:10;;;;;;;64.00;20.05;;;;;;;;;;2531531;54;21068;-74
2022/01/13 04:08:37;;;;;;;48.15;15.05;;;;;;;;;;2295395;58;21079;-74
2022/01/13 04:11:18;;;;;;;76.80;19.70;;;;;;;;;;2294583;58;21091;-74
2022/01/13 04:13:50;;;;;;;68.90;19.05;;;;;;;;;;2295262;58;21626;-74
2022/01/13 04:16:19;;;;;;;65.62;20.73;;;;;;;;;;2295129;58;21702;-74
2022/01/13 04:18:46;;;;;;;66.55;17.62;;;;;;;;;;2294445;58;21067;-74
2022/01/13 04:21:14;;;;;;;53.38;18.67;;;;;;;;;;2295085;58;21076;-74
2022/01/13 04:23:41;;;;;;;52.08;16.30;;;;;;;;;;2295087;58;21068;-74
2022/01/13 04:26:08;;;;;;;66.28;18.73;;;;;;;;;;2295167;58;21064;-74
2022/01/13 04:28:37;;;;;;;60.10;18.25;;;;;;;;;;2297161;53;21059;-75
2022/01/13 04:31:04;;;;;;;66.30;18.83;;;;;;;;;;2323912;58;21216;-75
2022/01/13 04:33:32;;;;;;;56.10;18.87;;;;;;;;;;2324402;58;21056;-75
2022/01/13 04:36:00;;;;;;;59.78;18.62;;;;;;;;;;2324429;58;21068;-75
2022/01/13 04:38:28;;;;;;;62.28;19.12;;;;;;;;;;2323836;58;21056;-75
2022/01/13 04:40:56;;;;;;;55.97;17.02;;;;;;;;;;2323716;58;21160;-75
2022/01/13 04:43:24;;;;;;;64.32;19.45;;;;;;;;;;2324061;58;21056;-74
2022/01/13 04:45:52;;;;;;;61.25;19.08;;;;;;;;;;2323469;58;21053;-75
2022/01/13 04:48:19;;;;;;;64.57;18.95;;;;;;;;;;2323934;55;21100;-75
2022/01/13 04:50:47;;;;;;;55.30;16.90;;;;;;;;;;2323858;58;21048;-75
2022/01/13 04:53:14;;;;;;;53.50;17.87;;;;;;;;;;2323652;58;21118;-75
2022/01/13 04:55:49;;;;;;;65.20;22.90;;;;;;;;;;2323178;58;21060;-75
2022/01/13 04:58:17;;;;;;;73.55;20.48;;;;;;;;;;2323412;58;21057;-75
2022/01/13 05:00:44;;;;;;;80.68;19.30;;;;;;;;;;2323149;58;21115;-73
2022/01/13 05:03:11;;;;;;;69.45;20.90;;;;;;;;;;2324226;58;21179;-75
2022/01/13 05:05:39;;;;;;;96.07;20.02;;;;;;;;;;2324520;58;21187;-75
2022/01/13 05:08:07;;;;;;;64.28;20.15;;;;;;;;;;2323784;58;21140;-75
2022/01/13 05:10:34;;;;;;;59.58;17.50;;;;;;;;;;2323407;58;21057;-75
2022/01/13 05:13:03;;;;;;;64.30;17.95;;;;;;;;;;2324589;58;21060;-75
2022/01/13 05:15:32;;;;;;;55.38;19.77;;;;;;;;;;2324607;58;21069;-74
2022/01/13 05:18:22;;;;;;;69.28;18.10;;;;;;;;;;2324716;58;21132;-75
2022/01/13 05:20:56;;;;;;;55.42;16.33;;;;;;;;;;2323405;58;21104;-75
2022/01/13 05:23:24;;;;;;;53.28;19.02;;;;;;;;;;2323742;58;21307;-75
2022/01/13 05:25:51;;;;;;;63.45;19.30;;;;;;;;;;2324102;58;21040;-75
2022/01/13 05:28:18;;;;;;;44.83;15.98;;;;;;;;;;2322737;58;21068;-75
2022/01/13 05:30:46;;;;;;;58.58;18.58;;;;;;;;;;2321926;58;21119;-75
2022/01/13 05:33:13;;;;;;;53.13;17.33;;;;;;;;;;2323052;58;21061;-75
2022/01/13 05:35:40;;;;;;;52.65;15.95;;;;;;;;;;2323290;58;21120;-75
2022/01/13 05:38:08;;;;;;;60.00;19.33;;;;;;;;;;2324132;58;21622;-75
2022/01/13 05:40:35;;;;;;;47.35;13.85;;;;;;;;;;2323517;58;21562;-76
2022/01/13 05:43:03;;;;;;;56.35;18.92;;;;;;;;;;2324098;58;21049;-75
2022/01/13 05:45:33;;;;;;;56.78;18.75;;;;;;;;;;2324493;58;21071;-77
2022/01/13 05:48:01;;;;;;;55.47;19.35;;;;;;;;;;2493330;54;21124;-73
2022/01/13 05:50:29;;;;;;;69.95;20.40;;;;;;;;;;2324406;58;21598;-74
2022/01/13 05:52:56;;;;;;;51.40;16.85;;;;;;;;;;2324908;58;21179;-75
2022/01/13 05:55:24;;;;;;;60.60;18.23;;;;;;;;;;2324879;58;21127;-74
2022/01/13 05:57:51;;;;;;;51.00;16.73;;;;;;;;;;2324911;58;21112;-75
2022/01/13 06:00:19;;;;;;;61.13;20.30;;;;;;;;;;2438575;53;21068;-75
2022/01/13 06:02:47;;;;;;;68.10;17.75;;;;;;;;;;2325235;58;21555;-74
2022/01/13 06:05:14;;;;;;;60.70;20.12;;;;;;;;;;2324412;58;21610;-75
2022/01/13 06:07:42;;;;;;;49.95;16.10;;;;;;;;;;2324803;58;21049;-75
2022/01/13 06:10:12;;;;;;;55.42;18.67;;;;;;;;;;2323902;58;21112;-75
2022/01/13 06:12:40;;;;;;;59.92;18.70;;;;;;;;;;2325120;58;21064;-75
2022/01/13 06:15:09;;;;;;;61.08;19.15;;;;;;;;;;2324805;58;21191;-75
2022/01/13 06:17:37;;;;;;;60.38;21.33;;;;;;;;;;2324687;58;21041;-75
2022/01/13 06:20:05;;;;;;;60.50;17.85;;;;;;;;;;2324255;58;21128;-75
2022/01/13 06:22:32;;;;;;;67.78;19.45;;;;;;;;;;2324688;58;21136;-75
2022/01/13 06:24:59;;;;;;;66.85;19.05;;;;;;;;;;2324659;58;21060;-74
2022/01/13 06:27:26;;;;;;;55.50;19.23;;;;;;;;;;2324917;58;21100;-75
2022/01/13 06:29:54;;;;;;;62.40;20.77;;;;;;;;;;2324525;58;21743;-74
2022/01/13 06:32:22;;;;;;;50.90;18.08;;;;;;;;;;2324888;58;21108;-74
2022/01/13 06:34:49;;;;;;;51.15;18.70;;;;;;;;;;2324971;58;21168;-76
2022/01/13 06:37:17;;;;;;;69.87;22.87;;;;;;;;;;2324629;58;21124;-76
2022/01/13 06:39:44;;;;;;;61.70;17.77;;;;;;;;;;2408953;54;21061;-76
2022/01/13 06:42:11;;;;;;;62.55;18.80;;;;;;;;;;2324924;58;21049;-76
2022/01/13 06:44:38;;;;;;;64.93;21.10;;;;;;;;;;2324863;58;21068;-76
2022/01/13 06:47:06;;;;;;;51.45;19.42;;;;;;;;;;2324802;58;21120;-76
2022/01/13 06:49:34;;;;;;;60.10;20.12;;;;;;;;;;2324539;58;21065;-76
2022/01/13 06:52:01;;;;;;;65.40;22.33;;;;;;;;;;2324924;58;21056;-76
2022/01/13 06:54:28;;;;;;;57.28;18.70;;;;;;;;;;2324959;58;21107;-76
2022/01/13 06:56:55;;;;;;;77.40;22.13;;;;;;;;;;2324775;58;21606;-76
2022/01/13 06:59:23;;;;;;;63.35;19.75;;;;;;;;;;2324502;58;21084;-76
2022/01/13 07:01:50;;;;;;;51.20;18.55;;;;;;;;;;2324797;58;21056;-76
2022/01/13 07:04:17;;;;;;;63.17;20.67;;;;;;;;;;2325029;58;21049;-76
2022/01/13 07:06:45;;;;;;;54.45;19.55;;;;;;;;;;2325055;58;21523;-76
2022/01/13 07:09:13;;;;;;;55.28;19.95;;;;;;;;;;2324328;58;21611;-76
2022/01/13 07:11:41;;;;;;;51.22;18.05;;;;;;;;;;2324996;58;21562;-76
2022/01/13 07:14:08;;;;;;;58.95;19.05;;;;;;;;;;2324638;58;21113;-76
2022/01/13 07:16:36;;;;;;;52.30;18.90;;;;;;;;;;2324760;58;21047;-76
2022/01/13 07:19:03;;;;;;;54.25;20.45;;;;;;;;;;2334309;54;21064;-76
2022/01/13 07:21:31;;;;;;;63.67;21.73;;;;;;;;;;2324908;58;21079;-76
2022/01/13 07:23:58;;;;;;;58.75;20.90;;;;;;;;;;2324841;58;21112;-76
2022/01/13 07:26:25;;;;;;;57.28;20.70;;;;;;;;;;2324546;58;21065;-76
2022/01/13 07:28:52;;;;;;;59.00;21.73;;;;;;;;;;2324562;58;21065;-76
2022/01/13 07:31:19;;;;;;;52.92;20.62;;;;;;;;;;2324884;58;21069;-76
2022/01/13 07:33:47;;;;;;;48.20;17.67;;;;;;;;;;2324944;58;21120;-76
2022/01/13 07:36:15;;;;;;;65.82;19.60;;;;;;;;;;2324700;58;21052;-76
2022/01/13 07:38:42;;;;;;;62.22;22.02;;;;;;;;;;2324677;58;21052;-77
2022/01/13 07:41:09;;;;;;;52.62;16.80;;;;;;;;;;2324832;58;21052;-77
2022/01/13 07:43:36;;;;;;;64.45;24.12;;;;;;;;;;2325129;58;21140;-76
2022/01/13 07:46:03;;;;;;;58.25;20.58;;;;;;;;;;2324661;58;21092;-75
2022/01/13 07:48:31;;;;;;;67.00;23.52;;;;;;;;;;2324821;58;21060;-76
2022/01/13 07:50:58;;;;;;;67.87;22.35;;;;;;;;;;2324530;58;21543;-76
2022/01/13 07:53:25;;;;;;;50.35;20.37;;;;;;;;;;2324741;58;21072;-76
2022/01/13 07:55:52;;;;;;;50.85;19.33;;;;;;;;;;2324905;58;21044;-76
2022/01/13 07:58:19;;;;;;;47.00;18.12;;;;;;;;;;2324990;58;21075;-76
2022/01/13 08:00:47;;;;;;;43.63;17.25;;;;;;;;;;2324386;58;21084;-77
2022/01/13 08:03:14;;;;;;;45.95;18.73;;;;;;;;;;2324874;58;21057;-76
2022/01/13 08:05:41;;;;;;;54.10;19.42;;;;;;;;;;2324724;58;21057;-76
2022/01/13 08:08:09;;;;;;;47.90;18.15;;;;;;;;;;2325063;58;21065;-76
2022/01/13 08:10:37;;;;;;;40.05;15.77;;;;;;;;;;2323940;58;21080;-75
2022/01/13 08:13:04;;;;;;;38.65;15.88;;;;;;;;;;2324062;58;21701;-76
2022/01/13 08:15:34;;;;;;;55.50;20.85;;;;;;;;;;2324863;58;21135;-76
2022/01/13 08:20:47;;;;;;;49.60;19.73;;;;;;;;;;2324344;54;21072;-76
2022/01/13 08:23:14;;;;;;;43.53;18.45;;;;;;;;;;2324943;58;21057;-74
2022/01/13 08:25:41;;;;;;;45.33;17.80;;;;;;;;;;2324440;58;21152;-76
2022/01/13 08:28:10;;;;;;;47.42;19.25;;;;;;;;;;2324978;58;21033;-76
2022/01/13 08:30:37;;;;;;;55.28;22.87;;;;;;;;;;2324513;58;21069;-76
2022/01/13 08:33:04;;;;;;;54.25;20.85;;;;;;;;;;2324768;58;21132;-76
2022/01/13 08:35:32;;;;;;;49.63;19.62;;;;;;;;;;2324878;58;21144;-76
2022/01/13 08:38:05;;;;;;;49.35;17.83;;;;;;;;;;2324890;58;21132;-76
2022/01/13 08:40:34;;;;;;;44.55;17.23;;;;;;;;;;2324062;58;21049;-76
2022/01/13 08:43:02;;;;;;;52.17;19.05;;;;;;;;;;2324726;58;21069;-76
2022/01/13 08:45:30;;;;;;;48.05;20.02;;;;;;;;;;2324765;58;21107;-77
2022/01/13 08:47:57;;;;;;;51.63;17.55;;;;;;;;;;2325075;58;21116;-76
2022/01/13 08:50:24;;;;;;;53.10;18.83;;;;;;;;;;2323855;58;21789;-76
2022/01/13 08:52:52;;;;;;;54.13;21.98;;;;;;;;;;2324607;58;21052;-76
2022/01/13 08:55:19;;;;;;;36.95;15.27;;;;;;;;;;2324812;58;21072;-76
2022/01/13 08:57:46;;;;;;;41.90;17.30;;;;;;;;;;2323763;58;21071;-76
2022/01/13 09:00:14;;;;;;;51.80;18.20;;;;;;;;;;2324102;58;21626;-77
2022/01/13 09:02:42;;;;;;;58.63;20.77;;;;;;;;;;2324501;58;21588;-76
2022/01/13 09:05:10;;;;;;;56.95;20.65;;;;;;;;;;2436335;54;21076;-76
2022/01/13 09:07:37;;;;;;;45.80;18.73;;;;;;;;;;2324714;58;21052;-76
2022/01/13 09:10:05;;;;;;;53.13;19.75;;;;;;;;;;2324317;58;21120;-76
2022/01/13 09:12:32;;;;;;;46.53;17.90;;;;;;;;;;2324776;58;21611;-76
2022/01/13 09:15:03;;;;;;;45.45;17.80;;;;;;;;;;2324843;58;21097;-76
2022/01/13 09:17:32;;;;;;;42.28;15.80;;;;;;;;;;2324445;58;21112;-76
2022/01/13 09:19:59;;;;;;;53.87;19.37;;;;;;;;;;2442799;53;21334;-76
2022/01/13 09:22:27;;;;;;;50.55;16.62;;;;;;;;;;2324371;58;21120;-76
2022/01/13 09:24:54;;;;;;;48.58;18.45;;;;;;;;;;2324904;58;21124;-75
2022/01/13 09:27:21;;;;;;;47.70;18.62;;;;;;;;;;2324210;58;21069;-76
2022/01/13 09:29:48;;;;;;;44.80;15.98;;;;;;;;;;2324068;58;21057;-76
2022/01/13 09:32:16;;;;;;;42.70;16.27;;;;;;;;;;2324549;58;21059;-76
2022/01/13 09:34:43;;;;;;;49.50;17.37;;;;;;;;;;2487360;54;22207;-76
2022/01/13 09:37:11;;;;;;;47.55;17.87;;;;;;;;;;2324833;58;21115;-76
2022/01/13 09:39:38;;;;;;;42.30;17.83;;;;;;;;;;2324403;58;21057;-76
2022/01/13 09:42:08;;;;;;;37.83;14.10;;;;;;;;;;2324133;58;21371;-76
2022/01/13 09:44:36;;;;;;;55.67;17.60;;;;;;;;;;2323977;58;21077;-76
2022/01/13 09:47:04;;;;;;;45.90;16.02;;;;;;;;;;2324558;58;21076;-76
2022/01/13 09:49:32;;;;;;;43.70;16.15;;;;;;;;;;2324166;58;21064;-76
2022/01/13 09:51:59;;;;;;;39.33;14.82;;;;;;;;;;2324609;58;21182;-76
2022/01/13 09:54:26;;;;;;;41.25;14.85;;;;;;;;;;2341805;54;21123;-76
2022/01/13 09:56:54;;;;;;;43.75;16.33;;;;;;;;;;2324294;58;21053;-77
2022/01/13 09:59:21;;;;;;;38.58;13.98;;;;;;;;;;2323974;58;21556;-76
2022/01/13 10:01:48;;;;;;;43.03;14.87;;;;;;;;;;2324986;58;21127;-76
2022/01/13 10:04:15;;;;;;;43.03;16.25;;;;;;;;;;2324857;58;21137;-76
2022/01/13 10:06:46;;;;;;;37.17;13.07;;;;;;;;;;2324828;58;21100;-76
2022/01/13 10:09:14;;;;;;;36.50;13.77;;;;;;;;;;2324456;58;21077;-74
2022/01/13 10:11:47;;;;;;;42.70;15.70;;;;;;;;;;2324906;58;21088;-76
2022/01/13 10:16:22;;;;;;;35.25;14.43;;;;;;;;;;2412848;54;21076;-76
2022/01/13 10:18:51;;;;;;;37.78;13.52;;;;;;;;;;2324709;58;21076;-75
2022/01/13 10:21:20;;;;;;;47.10;16.77;;;;;;;;;;2338450;54;21061;-76
2022/01/13 10:24:01;;;;;;;41.90;14.57;;;;;;;;;;2324979;58;21117;-75
2022/01/13 10:26:29;;;;;;;40.90;15.10;;;;;;;;;;2324879;58;21637;-76
2022/01/13 10:28:56;;;;;;;44.47;15.35;;;;;;;;;;2355057;52;21145;-73
2022/01/13 10:31:42;;;;;;;43.72;15.60;;;;;;;;;;2347303;57;21096;-73
2022/01/13 10:34:16;;;;;;;35.67;13.15;;;;;;;;;;2347887;57;21036;-73
2022/01/13 10:36:59;;;;;;;34.30;12.65;;;;;;;;;;2348115;57;21598;-74
2022/01/13 10:39:43;;;;;;;41.05;14.57;;;;;;;;;;2347738;57;21087;-74
2022/01/13 10:42:32;;;;;;;36.13;14.93;;;;;;;;;;2348363;57;21032;-74
2022/01/13 10:45:00;;;;;;;41.10;13.85;;;;;;;;;;2348086;57;21091;-78
2022/01/13 10:47:27;;;;;;;39.10;14.40;;;;;;;;;;2595386;53;21095;-74
2022/01/13 10:49:59;;;;;;;39.38;16.08;;;;;;;;;;2347404;57;21029;-74
2022/01/13 10:52:28;;;;;;;45.33;15.45;;;;;;;;;;2348096;57;21012;-74
2022/01/13 10:54:56;;;;;;;36.17;14.02;;;;;;;;;;2348088;57;21109;-74
2022/01/13 10:57:25;;;;;;;35.15;15.60;;;;;;;;;;2348300;57;21108;-73
2022/01/13 10:59:52;;;;;;;42.85;14.65;;;;;;;;;;2347775;57;21079;-74
2022/01/13 11:02:20;;;;;;;45.47;16.02;;;;;;;;;;2347638;57;21035;-75
2022/01/13 11:04:48;;;;;;;46.22;16.42;;;;;;;;;;2347549;57;21040;-75
2022/01/13 11:07:16;;;;;;;38.00;14.35;;;;;;;;;;2347339;57;21036;-75
2022/01/13 11:09:51;;;;;;;45.12;16.65;;;;;;;;;;2347422;57;21072;-74
2022/01/13 11:12:27;;;;;;;34.53;14.73;;;;;;;;;;2349507;57;21012;-73
2022/01/13 11:15:00;;;;;;;41.45;14.85;;;;;;;;;;2349021;57;21020;-73
2022/01/13 11:17:28;;;;;;;42.23;14.63;;;;;;;;;;2349504;57;21459;-74
2022/01/13 11:19:56;;;;;;;41.90;15.07;;;;;;;;;;2348392;57;21028;-74
2022/01/13 11:22:24;;;;;;;53.63;17.33;;;;;;;;;;2349262;57;21024;-73
2022/01/13 11:24:52;;;;;;;41.97;15.93;;;;;;;;;;2349058;57;21008;-73
2022/01/13 11:27:20;;;;;;;55.00;18.48;;;;;;;;;;2349341;57;21009;-74
2022/01/13 11:29:47;;;;;;;43.97;17.52;;;;;;;;;;2348662;57;21128;-75
2022/01/13 11:32:15;;;;;;;52.85;17.95;;;;;;;;;;2349263;57;21028;-74
2022/01/13 11:34:43;;;;;;;51.40;18.37;;;;;;;;;;2349175;57;21036;-74
2022/01/13 11:37:11;;;;;;;47.03;16.20;;;;;;;;;;2349018;57;21099;-73
2022/01/13 11:39:39;;;;;;;46.10;18.48;;;;;;;;;;2348948;57;21012;-74
2022/01/13 11:42:07;;;;;;;51.22;20.15;;;;;;;;;;2349238;57;21092;-74
2022/01/13 11:44:35;;;;;;;52.60;17.58;;;;;;;;;;2349001;57;21028;-74
2022/01/13 11:47:08;;;;;;;47.28;17.15;;;;;;;;;;2349044;57;21068;-73
2022/01/13 11:49:44;;;;;;;43.17;16.08;;;;;;;;;;2349118;57;21111;-76
2022/01/13 11:52:14;;;;;;;43.42;15.15;;;;;;;;;;2348764;57;21068;-74
2022/01/13 11:54:42;;;;;;;42.78;16.48;;;;;;;;;;2348908;57;21028;-74
2022/01/13 11:57:11;;;;;;;46.58;17.20;;;;;;;;;;2349083;57;21040;-75
2022/01/13 11:59:39;;;;;;;41.00;16.20;;;;;;;;;;2348810;57;21421;-73
2022/01/13 12:02:23;;;;;;;47.83;16.60;;;;;;;;;;2349314;57;21092;-75
2022/01/13 12:05:00;;;;;;;39.95;14.40;;;;;;;;;;2349006;57;21096;-74
2022/01/13 12:07:37;;;;;;;59.47;18.92;;;;;;;;;;2348763;57;21091;-74
2022/01/13 12:12:40;;;;;;;49.47;16.42;;;;;;;;;;2355763;57;22483;-74
2022/01/13 12:15:18;;;;;;;47.67;16.20;;;;;;;;;;2347454;57;21062;-74
2022/01/13 12:17:46;;;;;;;41.63;14.82;;;;;;;;;;2347580;57;21108;-73
2022/01/13 12:20:23;;;;;;;59.67;17.58;;;;;;;;;;2346082;57;21697;-76
2022/01/13 12:23:01;;;;;;;45.25;16.62;;;;;;;;;;2345765;57;21042;-74
2022/01/13 12:25:31;;;;;;;41.17;15.35;;;;;;;;;;2345690;57;21050;-73
2022/01/13 12:27:59;;;;;;;40.03;13.73;;;;;;;;;;2346112;57;21042;-74
2022/01/13 12:30:28;;;;;;;40.80;15.57;;;;;;;;;;2345380;57;21038;-74
2022/01/13 12:32:57;;;;;;;33.78;13.15;;;;;;;;;;2345936;57;21041;-75
2022/01/13 12:35:42;;;;;;;44.45;14.52;;;;;;;;;;2346004;57;21054;-76
2022/01/13 12:38:11;;;;;;;45.42;16.50;;;;;;;;;;2345939;57;21136;-74
2022/01/13 12:40:42;;;;;;;49.33;17.20;;;;;;;;;;2345040;57;21109;-76
2022/01/13 12:43:32;;;;;;;42.95;16.33;;;;;;;;;;2345346;57;21571;-74
2022/01/13 12:46:00;;;;;;;58.65;18.77;;;;;;;;;;2345862;57;21043;-74
2022/01/13 12:48:30;;;;;;;43.28;16.75;;;;;;;;;;2345846;57;21053;-74
2022/01/13 12:50:58;;;;;;;39.35;15.73;;;;;;;;;;2345834;57;21046;-75
2022/01/13 12:53:28;;;;;;;44.35;16.00;;;;;;;;;;2345873;57;21046;-73
2022/01/13 12:55:57;;;;;;;40.80;16.50;;;;;;;;;;2345959;57;21126;-75
2022/01/13 12:58:25;;;;;;;40.83;15.68;;;;;;;;;;2346046;57;21038;-74
2022/01/13 13:00:55;;;;;;;44.22;15.57;;;;;;;;;;2592185;53;21014;-74
2022/01/13 13:03:22;;;;;;;45.60;17.12;;;;;;;;;;2345801;57;21676;-75
2022/01/13 13:05:54;;;;;;;53.00;17.42;;;;;;;;;;2345252;57;21041;-76
2022/01/13 13:08:23;;;;;;;34.65;14.38;;;;;;;;;;2592995;53;21074;-74
2022/01/13 13:10:51;;;;;;;47.25;17.45;;;;;;;;;;2345043;57;21030;-74
2022/01/13 13:13:19;;;;;;;38.78;15.57;;;;;;;;;;2346067;57;21030;-74
2022/01/13 13:15:53;;;;;;;48.65;16.58;;;;;;;;;;2345464;57;21034;-75
2022/01/13 13:18:22;;;;;;;49.65;15.98;;;;;;;;;;2345921;57;21196;-74
2022/01/13 13:20:50;;;;;;;45.80;16.62;;;;;;;;;;2345506;57;21137;-74
2022/01/13 13:23:21;;;;;;;29.55;12.40;;;;;;;;;;2592517;52;21048;-75
2022/01/13 13:25:50;;;;;;;35.55;12.00;;;;;;;;;;2344904;57;21089;-75
2022/01/13 13:28:31;;;;;;;41.90;16.45;;;;;;;;;;2345337;57;21038;-74
2022/01/13 13:30:59;;;;;;;49.47;15.38;;;;;;;;;;2344377;57;21117;-74
2022/01/13 13:33:31;;;;;;;40.15;14.82;;;;;;;;;;2345087;57;21018;-75
2022/01/13 13:36:02;;;;;;;40.08;14.65;;;;;;;;;;2344838;57;21034;-74
2022/01/13 13:38:29;;;;;;;37.72;15.77;;;;;;;;;;2344988;57;21097;-73
2022/01/13 13:40:56;;;;;;;33.83;12.73;;;;;;;;;;2591119;53;21544;-75
2022/01/13 13:43:30;;;;;;;39.95;16.33;;;;;;;;;;2345004;57;21093;-75
2022/01/13 13:46:04;;;;;;;39.00;15.05;;;;;;;;;;2345038;57;21045;-75
2022/01/13 13:48:31;;;;;;;41.30;15.18;;;;;;;;;;2345085;57;21129;-74
2022/01/13 13:50:58;;;;;;;40.17;14.73;;;;;;;;;;2344623;57;22176;-74
2022/01/13 13:53:26;;;;;;;38.85;14.02;;;;;;;;;;2344839;57;21018;-74
2022/01/13 13:55:57;;;;;;;39.58;14.15;;;;;;;;;;2345010;57;21092;-75
2022/01/13 13:58:25;;;;;;;42.80;13.82;;;;;;;;;;2344974;57;21601;-75
2022/01/13 14:00:59;;;;;;;37.03;13.88;;;;;;;;;;2344531;57;21046;-75
2022/01/13 14:03:37;;;;;;;34.85;11.10;;;;;;;;;;2344525;57;21042;-74
2022/01/13 14:06:07;;;;;;;29.27;11.60;;;;;;;;;;2345258;57;21125;-75
2022/01/13 14:08:34;;;;;;;30.77;11.02;;;;;;;;;;2344893;57;21050;-74
2022/01/13 14:11:08;;;;;;;40.45;11.50;;;;;;;;;;2344420;57;21050;-73
2022/01/13 14:13:35;;;;;;;34.33;10.60;;;;;;;;;;2344749;57;21633;-73
2022/01/13 14:16:02;;;;;;;32.53;11.35;;;;;;;;;;2344916;57;21369;-75
2022/01/13 14:18:30;;;;;;;24.30;9.70;;;;;;;;;;2591765;53;21045;-74
2022/01/13 14:21:00;;;;;;;26.12;10.15;;;;;;;;;;2344296;57;21172;-75
2022/01/13 14:23:28;;;;;;;28.65;10.80;;;;;;;;;;2591885;53;21050;-74
2022/01/13 14:26:05;;;;;;;32.65;11.75;;;;;;;;;;2345049;57;21117;-76
2022/01/13 14:28:32;;;;;;;26.02;9.55;;;;;;;;;;2344697;57;21049;-74
2022/01/13 14:31:05;;;;;;;23.25;10.35;;;;;;;;;;2344632;57;21101;-75
2022/01/13 14:33:33;;;;;;;33.45;9.80;;;;;;;;;;2345004;57;21109;-74
2022/01/13 14:36:08;;;;;;;23.87;8.73;;;;;;;;;;2344915;57;21050;-74
2022/01/13 14:38:37;;;;;;;23.73;7.82;;;;;;;;;;2344789;57;21125;-74